Strona główna
METAR-TAF:

METAR-TAF

Lotnisko :

Mutsu, Japonia

Szerokość geograficzna: 41-14N, Długość geograficzna: 141-08E, wysokość: 7 m

Aktualna obserwacja pogody

Raport powstał 3 godziny i 57 minut temu, godzina 17:33 UTC
Wiatr 7 kt od zachód, zmienny między zachodnio-południowy zachód i północny zachód
Temperatura -3°C
Wilgotność 63%
Ciśnienie 1024 hPa
Widzialność: 5000 m
Mało chmury na wysokości 500 ft
Rozproszone chmury na wysokości 1000 ft
Przerywane chmury na wysokości 1500 ft
słaby przelotny opad śniegu

METAR: RJSO 091733Z 28007KT 240V320 5000 -SHSN FEW005 SCT010 BKN015 M03/M09 Q1024 RMK 1ST005 4ST010 7CU015 A3025

czas: 06:30 (21:30 UTC)


TAF: brakujący

Obserwacja i prognoza pogody dla ponad 4000 lotnisk (raport METAR i TAF).

Dostępne stacje oznaczono żółtymi i czerwonymi punktami na mapie.

Najedź kursorem aby zobaczyć nazwę stacji.

Kliknij aby zobaczyć obserwacje i prognozy pogody.

Aby zmienić mapę: kliknij na zielony przycisk z czarnym krzyżykiem, aby powiększyć; na zielony przycisk z myślnikiem, aby pomniejszyć; na zielone strzałki, aby przejść do map sąsiednich.


METAR-TAF: